首页
METAR-TAF:

METAR-TAF

机场 :

赫维什-巴拉顿国际机场

黑維茲, 匈牙利

纬度: 46-41-11N, 经度: 017-09-33E, 海拔: 124米

当前天气观测

该预报发布于22分钟前的01:15 UTC
风速3节,风向北转西北
温度 6°C
湿度 100%
气压 1019 hPa
能見度: 3500
少量云层高于300英尺
轻雾

METAR: LHSM 170115Z AUTO 33003KT 3500 BR FEW003 06/06 Q1019

时间: 03:37 (01:37 UTC)

预报

该预报发布于14小时和22分钟前的11:15 UTC
预报有效从16日的 12点(UTC)到 16日的 21点(UTC)
风速8节,风向北转东北
能见度10公里或以上
1500米以下无云,无积雨云
短暂存在
从 16日的 12点(UTC)到 16日的 15点(UTC)
能見度: 5000
散云层高于1500英尺
多云层高于4000英尺, 塔状积云.
多云层高于8000英尺
雨, 阵雨
成为
从 16日的 14点(UTC)到 16日的 17点(UTC)
风速2节,风向多变

TAF: LHSM 161115Z 1612/1621 03008KT CAVOK TEMPO 1612/1615 5000 RA SHRA SCT015 BKN040TCU BKN080 BECMG 1614/1617 VRB02KT

超过4000个机场的气象观测和天气预报(METAR&TAF报告)。

可查询的气象台以黄色和红色小点在地图上表示。

将鼠标移到小点上方,可查看气象台名称。

然后点击查看天气观测和预报。

如需切换地图:点击带黑十字的绿色按钮放大地图;点击带横线的绿色按钮缩小地图;或者点击绿色箭头查看邻近地区的地图。


METAR-TAF: